sensor_id;sensor_type;location;lat;lon;timestamp;temperature;humidity
66610;DHT22;53468;48.276;14.416;2023-04-01T00:00:35;9.10;99.90
66610;DHT22;53468;48.276;14.416;2023-04-01T00:29:27;9.00;99.90
66610;DHT22;53468;48.276;14.416;2023-04-01T00:35:25;9.00;99.90
66610;DHT22;53468;48.276;14.416;2023-04-01T00:40:47;8.80;99.90
66610;DHT22;53468;48.276;14.416;2023-04-01T00:51:54;8.90;99.90
66610;DHT22;53468;48.276;14.416;2023-04-01T00:57:36;8.90;99.90
66610;DHT22;53468;48.276;14.416;2023-04-01T01:03:00;8.80;99.90
66610;DHT22;53468;48.276;14.416;2023-04-01T01:09:17;8.80;99.90
66610;DHT22;53468;48.276;14.416;2023-04-01T01:15:01;8.50;99.90
66610;DHT22;53468;48.276;14.416;2023-04-01T01:20:44;8.50;99.90
66610;DHT22;53468;48.276;14.416;2023-04-01T01:26:21;8.50;99.90
66610;DHT22;53468;48.276;14.416;2023-04-01T01:31:50;8.50;99.90
66610;DHT22;53468;48.276;14.416;2023-04-01T01:37:13;8.50;99.90
66610;DHT22;53468;48.276;14.416;2023-04-01T01:42:45;8.50;99.90
66610;DHT22;53468;48.276;14.416;2023-04-01T01:47:55;8.50;99.90
66610;DHT22;53468;48.276;14.416;2023-04-01T01:53:13;8.50;99.90
66610;DHT22;53468;48.276;14.416;2023-04-01T01:58:25;8.40;99.90
66610;DHT22;53468;48.276;14.416;2023-04-01T02:03:38;8.30;99.90
66610;DHT22;53468;48.276;14.416;2023-04-01T02:09:04;8.30;99.90
66610;DHT22;53468;48.276;14.416;2023-04-01T02:14:36;8.20;99.90
66610;DHT22;53468;48.276;14.416;2023-04-01T02:20:06;8.20;99.90
66610;DHT22;53468;48.276;14.416;2023-04-01T02:25:22;8.10;99.90
66610;DHT22;53468;48.276;14.416;2023-04-01T02:30:37;8.20;99.90
66610;DHT22;53468;48.276;14.416;2023-04-01T02:35:46;8.20;99.90
66610;DHT22;53468;48.276;14.416;2023-04-01T02:41:15;8.10;99.90
66610;DHT22;53468;48.276;14.416;2023-04-01T02:46:45;8.10;99.90
66610;DHT22;53468;48.276;14.416;2023-04-01T02:52:21;8.20;99.90
66610;DHT22;53468;48.276;14.416;2023-04-01T02:58:07;8.20;99.90
66610;DHT22;53468;48.276;14.416;2023-04-01T03:03:16;8.30;99.90
66610;DHT22;53468;48.276;14.416;2023-04-01T03:08:26;8.30;99.90
66610;DHT22;53468;48.276;14.416;2023-04-01T03:13:47;8.30;99.90
66610;DHT22;53468;48.276;14.416;2023-04-01T03:18:52;8.40;99.90
66610;DHT22;53468;48.276;14.416;2023-04-01T03:24:24;8.40;99.90
66610;DHT22;53468;48.276;14.416;2023-04-01T03:29:58;8.30;99.90
66610;DHT22;53468;48.276;14.416;2023-04-01T03:35:14;8.30;99.90
66610;DHT22;53468;48.276;14.416;2023-04-01T03:40:32;8.30;99.90
66610;DHT22;53468;48.276;14.416;2023-04-01T03:46:01;8.30;99.90
66610;DHT22;53468;48.276;14.416;2023-04-01T03:51:11;8.30;99.90
66610;DHT22;53468;48.276;14.416;2023-04-01T03:56:28;8.30;99.90
66610;DHT22;53468;48.276;14.416;2023-04-01T04:01:53;8.30;99.90
66610;DHT22;53468;48.276;14.416;2023-04-01T04:07:13;8.30;99.90
66610;DHT22;53468;48.276;14.416;2023-04-01T04:12:29;8.30;99.90
66610;DHT22;53468;48.276;14.416;2023-04-01T04:17:42;8.30;99.90
66610;DHT22;53468;48.276;14.416;2023-04-01T04:23:23;8.30;99.90
66610;DHT22;53468;48.276;14.416;2023-04-01T04:28:39;8.30;99.90
66610;DHT22;53468;48.276;14.416;2023-04-01T04:34:05;8.30;99.90
66610;DHT22;53468;48.276;14.416;2023-04-01T04:39:21;8.30;99.90
66610;DHT22;53468;48.276;14.416;2023-04-01T04:44:40;8.30;99.90
66610;DHT22;53468;48.276;14.416;2023-04-01T04:55:51;8.30;99.90
66610;DHT22;53468;48.276;14.416;2023-04-01T05:01:06;8.30;99.90
66610;DHT22;53468;48.276;14.416;2023-04-01T05:06:15;8.30;99.90
66610;DHT22;53468;48.276;14.416;2023-04-01T05:12:00;8.30;99.90
66610;DHT22;53468;48.276;14.416;2023-04-01T05:17:48;8.40;99.90
66610;DHT22;53468;48.276;14.416;2023-04-01T05:23:15;8.50;99.90
66610;DHT22;53468;48.276;14.416;2023-04-01T05:34:50;8.80;99.90
66610;DHT22;53468;48.276;14.416;2023-04-01T05:40:59;8.90;99.90
66610;DHT22;53468;48.276;14.416;2023-04-01T05:46:44;9.00;99.90
66610;DHT22;53468;48.276;14.416;2023-04-01T06:39:34;9.30;99.90
66610;DHT22;53468;48.276;14.416;2023-04-01T06:45:07;9.50;99.90
66610;DHT22;53468;48.276;14.416;2023-04-01T06:51:02;9.60;99.90
66610;DHT22;53468;48.276;14.416;2023-04-01T07:02:25;9.70;99.90
66610;DHT22;53468;48.276;14.416;2023-04-01T07:08:23;9.80;99.90
66610;DHT22;53468;48.276;14.416;2023-04-01T07:14:20;9.90;99.90
66610;DHT22;53468;48.276;14.416;2023-04-01T07:38:40;10.80;99.90
66610;DHT22;53468;48.276;14.416;2023-04-01T07:44:57;11.10;99.90
66610;DHT22;53468;48.276;14.416;2023-04-01T07:50:52;11.40;99.90
66610;DHT22;53468;48.276;14.416;2023-04-01T07:56:32;11.50;99.90
66610;DHT22;53468;48.276;14.416;2023-04-01T08:08:23;11.40;99.90
66610;DHT22;53468;48.276;14.416;2023-04-01T08:32:34;11.70;99.90
66610;DHT22;53468;48.276;14.416;2023-04-01T08:38:10;12.20;99.90
66610;DHT22;53468;48.276;14.416;2023-04-01T08:43:45;13.00;99.90
66610;DHT22;53468;48.276;14.416;2023-04-01T09:01:09;13.50;99.90
66610;DHT22;53468;48.276;14.416;2023-04-01T09:06:50;13.10;99.90
66610;DHT22;53468;48.276;14.416;2023-04-01T09:12:27;12.90;99.90
66610;DHT22;53468;48.276;14.416;2023-04-01T09:29:29;12.90;99.90
66610;DHT22;53468;48.276;14.416;2023-04-01T09:34:56;12.90;99.90
66610;DHT22;53468;48.276;14.416;2023-04-01T09:40:30;12.90;99.90
66610;DHT22;53468;48.276;14.416;2023-04-01T09:45:44;12.80;99.90
66610;DHT22;53468;48.276;14.416;2023-04-01T09:51:06;12.70;99.90
66610;DHT22;53468;48.276;14.416;2023-04-01T10:03:13;12.50;99.90
66610;DHT22;53468;48.276;14.416;2023-04-01T10:26:23;13.20;99.90
66610;DHT22;53468;48.276;14.416;2023-04-01T10:31:59;13.10;99.90
66610;DHT22;53468;48.276;14.416;2023-04-01T10:37:32;13.30;99.90
66610;DHT22;53468;48.276;14.416;2023-04-01T10:44:12;13.70;99.90
66610;DHT22;53468;48.276;14.416;2023-04-01T10:50:23;14.20;99.90
66610;DHT22;53468;48.276;14.416;2023-04-01T10:56:28;14.10;99.90
66610;DHT22;53468;48.276;14.416;2023-04-01T11:13:45;14.20;99.90
66610;DHT22;53468;48.276;14.416;2023-04-01T11:19:50;14.30;99.90
66610;DHT22;53468;48.276;14.416;2023-04-01T11:31:00;14.40;99.90
66610;DHT22;53468;48.276;14.416;2023-04-01T11:36:29;14.30;99.90
66610;DHT22;53468;48.276;14.416;2023-04-01T11:41:55;14.20;99.90
66610;DHT22;53468;48.276;14.416;2023-04-01T11:53:47;14.30;99.90
66610;DHT22;53468;48.276;14.416;2023-04-01T12:04:58;14.60;99.90
66610;DHT22;53468;48.276;14.416;2023-04-01T12:10:18;14.80;99.90
66610;DHT22;53468;48.276;14.416;2023-04-01T12:16:37;14.90;99.90
66610;DHT22;53468;48.276;14.416;2023-04-01T12:21:58;15.00;99.90
66610;DHT22;53468;48.276;14.416;2023-04-01T12:27:31;14.90;99.90
66610;DHT22;53468;48.276;14.416;2023-04-01T12:32:41;14.90;99.90
66610;DHT22;53468;48.276;14.416;2023-04-01T12:38:04;14.70;99.60
66610;DHT22;53468;48.276;14.416;2023-04-01T12:49:36;14.40;99.90
66610;DHT22;53468;48.276;14.416;2023-04-01T13:01:11;14.10;99.90
66610;DHT22;53468;48.276;14.416;2023-04-01T13:06:48;13.90;99.90
66610;DHT22;53468;48.276;14.416;2023-04-01T13:12:23;14.30;99.90
66610;DHT22;53468;48.276;14.416;2023-04-01T13:17:51;13.90;99.90
66610;DHT22;53468;48.276;14.416;2023-04-01T13:23:28;13.30;99.90
66610;DHT22;53468;48.276;14.416;2023-04-01T13:28:52;13.20;99.90
66610;DHT22;53468;48.276;14.416;2023-04-01T13:34:05;13.30;99.90
66610;DHT22;53468;48.276;14.416;2023-04-01T13:44:46;13.30;99.90
66610;DHT22;53468;48.276;14.416;2023-04-01T13:55:54;13.80;99.90
66610;DHT22;53468;48.276;14.416;2023-04-01T14:01:08;13.80;99.90
66610;DHT22;53468;48.276;14.416;2023-04-01T14:06:34;13.80;99.90
66610;DHT22;53468;48.276;14.416;2023-04-01T14:12:12;13.70;99.90
66610;DHT22;53468;48.276;14.416;2023-04-01T14:17:42;13.70;99.90
66610;DHT22;53468;48.276;14.416;2023-04-01T14:23:13;13.80;99.90
66610;DHT22;53468;48.276;14.416;2023-04-01T14:28:41;14.10;99.90
66610;DHT22;53468;48.276;14.416;2023-04-01T14:33:53;13.70;99.90
66610;DHT22;53468;48.276;14.416;2023-04-01T14:39:14;12.40;99.90
66610;DHT22;53468;48.276;14.416;2023-04-01T14:50:41;12.40;99.90
66610;DHT22;53468;48.276;14.416;2023-04-01T14:55:54;12.30;99.90
66610;DHT22;53468;48.276;14.416;2023-04-01T15:01:31;12.20;99.90
66610;DHT22;53468;48.276;14.416;2023-04-01T15:07:20;12.00;99.90
66610;DHT22;53468;48.276;14.416;2023-04-01T15:13:10;11.60;99.90
66610;DHT22;53468;48.276;14.416;2023-04-01T15:19:09;11.50;99.90
66610;DHT22;53468;48.276;14.416;2023-04-01T15:24:48;11.50;99.90
66610;DHT22;53468;48.276;14.416;2023-04-01T15:30:32;11.50;99.90
66610;DHT22;53468;48.276;14.416;2023-04-01T15:48:17;11.00;99.90
66610;DHT22;53468;48.276;14.416;2023-04-01T15:54:01;11.30;99.90
66610;DHT22;53468;48.276;14.416;2023-04-01T16:00:16;11.40;99.90
66610;DHT22;53468;48.276;14.416;2023-04-01T16:12:03;11.10;99.90
66610;DHT22;53468;48.276;14.416;2023-04-01T16:17:31;10.90;99.90
66610;DHT22;53468;48.276;14.416;2023-04-01T16:22:49;10.90;99.90
66610;DHT22;53468;48.276;14.416;2023-04-01T16:34:18;10.70;99.90
66610;DHT22;53468;48.276;14.416;2023-04-01T16:40:13;10.70;99.90
66610;DHT22;53468;48.276;14.416;2023-04-01T16:45:43;10.70;99.90
66610;DHT22;53468;48.276;14.416;2023-04-01T16:51:36;10.50;99.90
66610;DHT22;53468;48.276;14.416;2023-04-01T16:56:47;10.50;99.90
66610;DHT22;53468;48.276;14.416;2023-04-01T17:02:10;10.30;99.90
66610;DHT22;53468;48.276;14.416;2023-04-01T17:07:32;10.40;99.90
66610;DHT22;53468;48.276;14.416;2023-04-01T17:12:53;10.30;99.90
66610;DHT22;53468;48.276;14.416;2023-04-01T17:18:05;10.20;99.90
66610;DHT22;53468;48.276;14.416;2023-04-01T17:24:04;10.30;99.90
66610;DHT22;53468;48.276;14.416;2023-04-01T17:35:59;10.10;99.90
66610;DHT22;53468;48.276;14.416;2023-04-01T17:41:28;9.90;99.90
66610;DHT22;53468;48.276;14.416;2023-04-01T17:47:12;9.80;99.90
66610;DHT22;53468;48.276;14.416;2023-04-01T17:53:08;9.70;99.90
66610;DHT22;53468;48.276;14.416;2023-04-01T17:58:26;9.80;99.90
66610;DHT22;53468;48.276;14.416;2023-04-01T18:09:37;9.80;99.90
66610;DHT22;53468;48.276;14.416;2023-04-01T18:15:43;9.80;99.90
66610;DHT22;53468;48.276;14.416;2023-04-01T18:21:46;9.80;99.90
66610;DHT22;53468;48.276;14.416;2023-04-01T21:14:58;9.60;99.90
66610;DHT22;53468;48.276;14.416;2023-04-01T21:21:01;9.70;99.90
66610;DHT22;53468;48.276;14.416;2023-04-01T23:03:00;9.30;99.90
66610;DHT22;53468;48.276;14.416;2023-04-01T23:09:05;9.20;99.90
66610;DHT22;53468;48.276;14.416;2023-04-01T23:15:17;9.30;99.90
66610;DHT22;53468;48.276;14.416;2023-04-01T23:27:08;9.20;99.90
66610;DHT22;53468;48.276;14.416;2023-04-01T23:33:19;9.20;99.90
66610;DHT22;53468;48.276;14.416;2023-04-01T23:39:04;9.20;99.90
66610;DHT22;53468;48.276;14.416;2023-04-01T23:56:59;9.00;99.90
